Latest Weather Observations for Hobart Airport

IDT60801

Issued at 11:51 am EST Tuesday 14 July 2020 (issued every 10 minutes, with the page automatically refreshed every 10 minutes)

About weather observations | Map of weather stations | Latest weather observations for TAS | Other Formats
Station Details ID: 094008 Name: HOBART AIRPORT Lat: -42.83 Lon: 147.50 Height: 4.0 m
Data from the previous 72 hours. | See also: Recent months at Hobart Airport
Date/Time
EST
Temp
°C
App
Temp
°C
Dew
Point
°C
Rel
Hum
%
Delta-T
°C
Wind Press
QNH
hPa
Press
MSL
hPa
Rain since
9am
mm
Dir  Spd
km/h
Gust
km/h
Spd
kts
Gust
kts
14/11:30am 8.3 5.3 4.1 75 1.8 NW 9 11 5 6 1033.3 1033.4 0.0
14/11:00am 7.9 4.4 3.7 75 1.8 NW 11 15 6 8 1033.5 1033.6 0.0
14/10:30am 7.6 3.4 3.6 76 1.7 WNW 15 19 8 10 1033.9 1034.0 0.0
14/10:00am 6.9 3.0 3.3 78 1.5 WNW 13 17 7 9 1033.9 1034.0 0.0
14/09:30am 6.6 3.1 3.7 82 1.2 NW 11 13 6 7 1033.9 1034.0 0.0
14/09:00am 6.1 2.9 3.2 82 1.2 NW 9 13 5 7 1034.1 1034.2 0.0
14/08:30am 6.2 3.0 2.8 79 1.4 NW 9 15 5 8 1034.1 1034.2 0.0
14/08:00am 5.9 1.6 3.0 82 1.2 NW 15 22 8 12 1033.9 1034.0 0.0
14/07:30am 5.7 1.7 2.7 81 1.2 NW 13 15 7 8 1033.8 1033.9 0.0
14/07:00am 5.9 3.1 3.0 82 1.2 WNW 7 11 4 6 1033.7 1033.8 0.0
14/06:30am 6.1 3.4 3.5 83 1.1 NW 7 13 4 7 1033.4 1033.5 0.0
14/06:00am 5.7 1.0 3.0 83 1.1 NW 17 20 9 11 1033.0 1033.1 0.0
14/05:30am 5.8 1.1 2.9 82 1.2 WNW 17 20 9 11 1032.8 1032.9 0.0
14/05:00am 5.7 1.7 3.0 83 1.1 NW 13 15 7 8 1032.6 1032.7 0.0
14/04:30am 5.8 2.8 3.9 88 0.8 NNW 9 13 5 7 1032.4 1032.5 0.0
14/04:00am 5.8 1.9 3.4 84 1.0 NW 13 20 7 11 1032.1 1032.2 0.0
14/03:30am 5.6 2.1 3.4 86 0.9 WNW 11 15 6 8 1032.4 1032.5 0.0
14/03:00am 5.6 2.5 3.7 87 0.8 WNW 9 13 5 7 1032.5 1032.6 0.0
14/02:30am 5.4 3.3 3.7 89 0.7 NW 4 9 2 5 1032.7 1032.8 0.0
14/02:00am 5.3 2.2 3.4 87 0.8 NW 9 13 5 7 1032.4 1032.5 0.0
14/01:30am 5.1 2.9 3.1 87 0.8 NW 4 9 2 5 1032.4 1032.5 0.0
14/01:00am 4.9 0.9 2.9 87 0.8 NNW 13 15 7 8 1032.2 1032.3 0.0
14/12:30am 4.5 0.5 2.8 89 0.7 NW 13 19 7 10 1032.3 1032.4 0.0
14/12:00am 3.9 0.6 2.4 90 0.6 WNW 9 15 5 8 1032.6 1032.7 0.0
 
Date/Time
EST
Temp
°C
App
Temp
°C
Dew
Point
°C
Rel
Hum
%
Delta-T
°C
Wind Press
QNH
hPa
Press
MSL
hPa
Rain since
9am
mm
Dir  Spd
km/h
Gust
km/h
Spd
kts
Gust
kts
13/11:30pm 3.1 0.1 1.8 91 0.5 W 7 9 4 5 1032.8 1032.9 0.0
13/11:00pm 2.6 -0.8 1.6 93 0.4 NW 9 11 5 6 1032.8 1032.9 0.0
13/10:30pm 3.0 -1.2 1.7 91 0.5 NW 13 15 7 8 1032.6 1032.7 0.0
13/10:00pm 3.3 0.3 1.7 89 0.6 WNW 7 9 4 5 1032.6 1032.7 0.0
13/09:30pm 3.6 1.2 2.1 90 0.6 W 4 7 2 4 1032.4 1032.5 0.0
13/09:00pm 3.9 1.0 2.4 90 0.6 NW 7 9 4 5 1032.4 1032.5 0.0
13/08:30pm 4.0 0.7 2.5 90 0.6 WNW 9 11 5 6 1032.2 1032.3 0.0
13/08:00pm 4.1 0.8 2.3 88 0.7 NW 9 13 5 7 1032.0 1032.1 0.0
13/07:30pm 4.4 2.7 2.1 85 0.9 CALM 0 0 0 0 1032.0 1032.1 0.0
13/07:00pm 4.1 1.8 2.6 90 0.6 WNW 4 7 2 4 1031.7 1031.8 0.0
13/06:30pm 4.3 2.8 2.8 90 0.6 CALM 0 0 0 0 1031.4 1031.5 0.0
13/06:00pm 5.2 3.7 3.0 86 0.9 CALM 0 0 0 0 1031.3 1031.4 0.0
13/05:30pm 6.1 4.7 3.5 83 1.1 CALM 0 0 0 0 1031.1 1031.2 0.0
13/05:00pm 7.3 5.7 4.3 81 1.3 S 2 7 1 4 1031.0 1031.1 0.0
13/04:30pm 8.7 5.6 3.8 71 2.1 SE 9 11 5 6 1030.9 1031.0 0.0
13/04:00pm 9.7 6.7 4.2 68 2.4 SE 9 9 5 5 1030.7 1030.8 0.0
13/03:30pm 10.5 7.5 4.2 65 2.8 SE 9 11 5 6 1030.5 1030.6 0.0
13/03:00pm 10.7 8.4 4.9 67 2.6 SSE 6 9 3 5 1030.5 1030.6 0.0
13/02:30pm 10.1 9.1 5.5 73 2.1 CALM 0 7 0 4 1030.4 1030.5 0.0
13/02:00pm 11.4 9.3 3.7 59 3.4 NNE 4 7 2 4 1030.3 1030.4 0.0
13/01:30pm 11.1 8.4 3.8 61 3.2 NNE 7 11 4 6 1030.3 1030.4 0.0
13/01:00pm 10.8 8.2 4.3 64 2.9 WNW 7 11 4 6 1030.5 1030.6 0.0
13/12:30pm 10.1 7.1 3.9 65 2.7 WNW 9 11 5 6 1030.7 1030.8 0.0
13/12:00pm 9.2 5.8 4.2 71 2.2 NW 11 13 6 7 1031.1 1031.2 0.0
13/11:30am 8.8 5.4 4.2 73 2.0 NW 11 15 6 8 1031.2 1031.3 0.0
13/11:00am 8.2 5.2 4.3 76 1.7 NNW 9 11 5 6 1031.4 1031.5 0.0
13/10:30am 7.2 4.2 3.9 79 1.4 NW 9 11 5 6 1031.5 1031.6 0.0
13/10:00am 6.2 3.1 3.8 85 1.0 W 9 9 5 5 1031.5 1031.6 0.0
13/09:30am 5.6 2.9 3.9 89 0.7 WNW 7 9 4 5 1031.4 1031.5 0.0
13/09:00am 5.0 2.2 3.3 89 0.7 NW 7 11 4 6 1031.2 1031.3 0.2
13/08:30am 4.2 1.9 3.0 92 0.5 WNW 4 7 2 4 1030.7 1030.8 0.2
13/08:00am 4.1 -0.6 2.9 92 0.5 WNW 17 22 9 12 1030.5 1030.6 0.2
13/07:30am 4.1 -0.3 2.9 92 0.5 WNW 15 20 8 11 1030.3 1030.4 0.2
13/07:00am 4.1 0.5 2.9 92 0.5 NW 11 15 6 8 1030.0 1030.1 0.2
13/06:30am 4.0 0.8 2.8 92 0.5 NW 9 13 5 7 1029.7 1029.8 0.2
13/06:00am 3.9 -0.5 2.6 91 0.5 NW 15 19 8 10 1029.3 1029.4 0.2
13/05:30am 4.2 -0.1 3.0 92 0.5 NW 15 17 8 9 1029.1 1029.2 0.2
13/05:00am 4.4 1.2 2.9 90 0.6 NNW 9 13 5 7 1029.2 1029.3 0.2
13/04:30am 4.2 0.2 3.0 92 0.5 NW 13 17 7 9 1029.1 1029.2 0.2
13/04:00am 4.2 0.2 3.0 92 0.5 NW 13 19 7 10 1029.1 1029.2 0.2
13/03:30am 4.0 0.8 2.8 92 0.5 WNW 9 17 5 9 1029.3 1029.4 0.2
13/03:00am 3.8 0.9 2.5 91 0.5 NW 7 9 4 5 1029.1 1029.2 0.2
13/02:30am 3.8 -0.6 2.5 91 0.5 NW 15 22 8 12 1029.1 1029.2 0.2
13/02:00am 3.4 -1.4 2.4 93 0.4 WNW 17 20 9 11 1028.9 1029.0 0.2
13/01:30am 3.2 -0.9 2.2 93 0.4 WNW 13 17 7 9 1028.7 1028.8 0.2
13/01:00am 2.7 -1.1 1.9 94 0.3 WNW 11 15 6 8 1028.3 1028.4 0.2
13/12:30am 2.9 -0.5 1.9 93 0.4 NW 9 13 5 7 1028.3 1028.4 0.2
13/12:00am 3.2 -0.1 2.2 93 0.4 NNW 9 15 5 8 1028.3 1028.4 0.2
 
Date/Time
EST
Temp
°C
App
Temp
°C
Dew
Point
°C
Rel
Hum
%
Delta-T
°C
Wind Press
QNH
hPa
Press
MSL
hPa
Rain since
9am
mm
Dir  Spd
km/h
Gust
km/h
Spd
kts
Gust
kts
12/11:30pm 3.3 0.0 2.5 94 0.3 NNW 9 13 5 7 1028.4 1028.5 0.2
12/11:00pm 3.4 0.5 2.4 93 0.4 WNW 7 9 4 5 1028.1 1028.2 0.0
12/10:30pm 3.6 0.4 2.9 95 0.3 NNW 9 13 5 7 1027.7 1027.8 0.0
12/10:00pm 3.4 0.5 2.6 94 0.3 NW 7 11 4 6 1027.7 1027.8 0.0
12/09:30pm 3.5 0.2 2.7 94 0.3 NW 9 11 5 6 1027.7 1027.8 0.0
12/09:00pm 3.4 1.4 2.4 93 0.4 NNW 2 9 1 5 1027.5 1027.6 0.0
12/08:30pm 4.6 1.5 3.6 93 0.4 NW 9 11 5 6 1027.3 1027.4 0.0
12/08:00pm 4.9 1.4 3.4 90 0.6 NW 11 15 6 8 1026.9 1027.0 0.0
12/07:30pm 4.8 0.9 3.6 92 0.5 NW 13 15 7 8 1026.6 1026.7 0.0
12/07:00pm 5.2 2.2 4.0 92 0.5 NNW 9 13 5 7 1026.4 1026.5 0.0
12/06:30pm 5.7 3.9 3.5 86 0.9 WSW 2 7 1 4 1026.0 1026.1 0.0
12/06:00pm 5.3 4.0 4.1 92 0.5 CALM 0 0 0 0 1025.7 1025.8 0.0
12/05:30pm 7.2 4.5 3.9 79 1.4 S 7 9 4 5 1025.4 1025.5 0.0
12/05:00pm 7.6 4.2 4.1 78 1.5 SSE 11 11 6 6 1025.0 1025.1 0.0
12/04:30pm 9.0 6.0 4.2 72 2.1 S 9 9 5 5 1024.7 1024.8 0.0
12/04:00pm 10.1 6.6 3.4 63 2.9 S 11 13 6 7 1024.5 1024.6 0.0
12/03:30pm 10.6 6.7 3.2 60 3.2 S 13 15 7 8 1024.3 1024.4 0.0
12/03:00pm 10.6 6.9 4.6 66 2.7 S 13 17 7 9 1024.1 1024.2 0.0
12/02:30pm 10.6 7.1 5.3 70 2.4 SSE 13 17 7 9 1023.9 1024.0 0.0
12/02:07pm 10.8 6.8 5.1 68 2.6 S 15 19 8 10 1023.8 1023.9 0.0
12/02:00pm 10.7 6.7 4.7 66 2.7 S 15 20 8 11 1023.7 1023.8 0.0
12/01:30pm 10.8 6.5 5.3 69 2.5 S 17 22 9 12 1023.4 1023.5 0.0
12/01:00pm 10.8 7.3 5.6 70 2.4 SSE 13 20 7 11 1023.2 1023.3 0.0
12/12:30pm 10.7 7.4 6.6 76 1.9 SSE 13 15 7 8 1023.2 1023.3 0.0
12/12:00pm 10.4 7.1 6.5 77 1.8 S 13 15 7 8 1023.2 1023.3 0.0
12/11:30am 9.7 7.1 7.6 87 1.0 S 11 13 6 7 1023.3 1023.4 0.0
12/11:23am 9.6 7.0 7.9 89 0.8 S 11 13 6 7 1023.3 1023.4 0.0
12/11:00am 9.1 6.1 7.8 92 0.6 S 13 17 7 9 1023.4 1023.5 0.0
12/10:45am 9.2 6.2 7.9 92 0.6 S 13 17 7 9 1023.3 1023.4 0.0
12/10:30am 9.3 6.4 8.0 92 0.6 S 13 17 7 9 1023.3 1023.4 0.0
12/10:11am 8.7 6.3 7.2 90 0.7 WNW 9 11 5 6 1023.2 1023.3 0.0
12/10:06am 8.9 6.5 7.0 88 0.9 WNW 9 11 5 6 1023.1 1023.2 0.0
12/10:00am 8.7 6.3 6.8 88 0.9 WNW 9 11 5 6 1023.1 1023.2 0.0
12/09:43am 8.3 5.9 6.8 90 0.7 NW 9 11 5 6 1022.8 1022.9 0.0
12/09:30am 8.0 5.5 6.5 90 0.7 NW 9 11 5 6 1022.6 1022.7 0.0
12/09:00am 7.3 5.0 5.7 89 0.7 NW 7 9 4 5 1022.4 1022.5 0.0
12/08:37am 7.2 4.5 5.6 89 0.7 NW 9 13 5 7 1022.2 1022.3 0.0
12/08:30am 7.2 4.9 5.9 91 0.6 WNW 7 11 4 6 1022.1 1022.2 0.0
12/08:00am 6.9 4.8 5.8 93 0.5 NW 6 9 3 5 1021.7 1021.8 0.0
12/07:30am 6.9 5.5 5.5 91 0.6 NNW 2 7 1 4 1021.4 1021.5 0.0
12/07:00am 7.0 4.3 5.7 91 0.6 WNW 9 11 5 6 1020.7 1020.8 0.0
12/06:30am 6.9 3.8 5.5 91 0.6 NW 11 13 6 7 1020.3 1020.4 0.0
12/06:00am 7.0 4.0 5.9 93 0.5 NW 11 13 6 7 1019.8 1019.9 0.0
12/05:47am 7.1 4.8 5.8 91 0.6 NW 7 9 4 5 1019.7 1019.8 0.0
12/05:30am 7.2 5.1 5.6 89 0.7 NNW 6 7 3 4 1019.7 1019.8 0.0
12/05:00am 7.2 5.8 5.6 89 0.7 NNW 2 9 1 5 1019.3 1019.4 0.0
12/04:30am 7.2 5.9 5.9 91 0.6 N 2 9 1 5 1019.1 1019.2 0.0
12/04:00am 7.2 6.3 5.9 91 0.6 CALM 0 0 0 0 1018.9 1019.0 0.0
12/03:35am 7.2 5.1 5.6 89 0.7 NNE 6 7 3 4 1018.8 1018.9 0.0
12/03:30am 7.2 4.9 5.6 89 0.7 NNE 7 7 4 4 1018.8 1018.9 0.0
12/03:00am 7.5 5.2 5.5 87 0.9 NW 7 9 4 5 1018.8 1018.9 0.0
12/02:30am 7.7 5.9 5.2 84 1.1 WSW 4 7 2 4 1018.8 1018.9 0.0
12/02:00am 7.6 6.5 5.1 84 1.1 CALM 0 0 0 0 1018.5 1018.6 0.0
12/01:30am 7.4 5.2 5.4 87 0.9 W 6 7 3 4 1018.2 1018.3 0.0
12/01:00am 7.2 5.8 5.4 88 0.8 NW 2 7 1 4 1018.1 1018.2 0.0
12/12:30am 7.3 5.0 5.5 88 0.8 NW 7 9 4 5 1017.9 1018.0 0.0
12/12:00am 7.0 4.6 5.4 89 0.7 NW 7 11 4 6 1017.8 1017.9 0.0
 
Date/Time
EST
Temp
°C
App
Temp
°C
Dew
Point
°C
Rel
Hum
%
Delta-T
°C
Wind Press
QNH
hPa
Press
MSL
hPa
Rain since
9am
mm
Dir  Spd
km/h
Gust
km/h
Spd
kts
Gust
kts
11/11:30pm 7.5 4.8 5.5 87 0.9 NW 9 11 5 6 1017.7 1017.8 0.0
11/11:00pm 7.4 5.0 5.4 87 0.9 WNW 7 9 4 5 1017.7 1017.8 0.0
11/10:30pm 7.4 5.3 5.6 88 0.8 NW 6 9 3 5 1017.6 1017.7 0.0
11/10:00pm 7.3 5.0 5.7 89 0.7 NNW 7 7 4 4 1017.5 1017.6 0.0
11/09:30pm 7.3 5.0 5.5 88 0.8 NNW 7 9 4 5 1017.5 1017.6 0.0
11/09:00pm 7.3 4.5 5.0 85 1.0 NW 9 11 5 6 1017.5 1017.6 0.0
11/08:30pm 7.5 4.7 5.0 84 1.1 NW 9 11 5 6 1017.4 1017.5 0.0
11/08:00pm 7.1 4.6 4.8 85 1.0 NW 7 9 4 5 1017.2 1017.3 0.0
11/07:30pm 7.1 4.3 5.1 87 0.9 WNW 9 11 5 6 1017.1 1017.2 0.0
11/07:00pm 7.2 4.5 5.4 88 0.8 NW 9 9 5 5 1016.8 1016.9 0.0
11/06:30pm 7.4 4.2 5.1 85 1.0 NW 11 13 6 7 1016.6 1016.7 0.0
11/06:00pm 7.9 4.8 5.4 84 1.1 NW 11 13 6 7 1016.5 1016.6 0.0
11/05:30pm 8.5 5.7 5.1 79 1.5 NNW 9 9 5 5 1016.2 1016.3 0.0
11/05:00pm 8.4 5.6 5.0 79 1.5 NW 9 11 5 6 1016.1 1016.2 0.0
11/04:30pm 8.7 5.1 5.1 78 1.6 WNW 13 17 7 9 1016.2 1016.3 0.0
11/04:00pm 9.1 5.6 5.3 77 1.7 NW 13 15 7 8 1016.0 1016.1 0.0
11/03:30pm 9.4 6.6 5.2 75 1.9 NNW 9 13 5 7 1015.9 1016.0 0.0
11/03:00pm 9.6 6.4 5.2 74 2.0 WNW 11 17 6 9 1015.9 1016.0 0.0
11/02:30pm 9.5 6.7 5.3 75 1.9 NW 9 13 5 7 1016.0 1016.1 0.0
11/02:00pm 9.7 6.2 5.3 74 2.0 NW 13 15 7 8 1016.0 1016.1 0.0
11/01:30pm 9.8 5.8 4.9 71 2.2 NW 15 19 8 10 1016.3 1016.4 0.0
11/01:00pm 9.5 5.4 4.5 71 2.2 NW 15 20 8 11 1016.7 1016.8 0.0
11/12:30pm 9.3 4.9 4.6 72 2.1 NNW 17 24 9 13 1016.9 1017.0 0.0
11/12:00pm 8.6 4.5 4.3 74 1.9 NW 15 22 8 12 1017.1 1017.2 0.0

Other formats

Comma delimited format used in spreadsheet applications
http://www.bom.gov.au/fwo/IDT60801/IDT60801.94975.axf

JavaScript Object Notation format (JSON) in row-major order
http://www.bom.gov.au/fwo/IDT60801/IDT60801.94975.json

Data quality

Most of these data are generated automatically and are frequently updated. Quality checks on data are not normally performed. It is possible for incorrect values to appear. Refer to information at About Latest Weather Observations and please check the disclaimer before using these data.